sensor_id;sensor_type;location;lat;lon;timestamp;temperature;humidity
36552;DHT22;22559;54.176;12.102;2024-02-15T00:02:04;10.80;99.90
36552;DHT22;22559;54.176;12.102;2024-02-15T00:04:30;10.80;99.90
36552;DHT22;22559;54.176;12.102;2024-02-15T00:06:57;10.80;99.90
36552;DHT22;22559;54.176;12.102;2024-02-15T00:09:22;10.80;99.90
36552;DHT22;22559;54.176;12.102;2024-02-15T00:11:48;10.80;99.90
36552;DHT22;22559;54.176;12.102;2024-02-15T00:14:14;10.80;99.90
36552;DHT22;22559;54.176;12.102;2024-02-15T00:16:39;10.80;99.90
36552;DHT22;22559;54.176;12.102;2024-02-15T00:19:05;10.80;99.90
36552;DHT22;22559;54.176;12.102;2024-02-15T00:21:32;10.80;99.90
36552;DHT22;22559;54.176;12.102;2024-02-15T00:23:58;10.80;99.90
36552;DHT22;22559;54.176;12.102;2024-02-15T00:26:25;10.80;99.90
36552;DHT22;22559;54.176;12.102;2024-02-15T00:28:51;10.70;99.90
36552;DHT22;22559;54.176;12.102;2024-02-15T00:31:16;10.70;99.90
36552;DHT22;22559;54.176;12.102;2024-02-15T00:33:42;10.70;99.90
36552;DHT22;22559;54.176;12.102;2024-02-15T00:36:08;10.70;99.90
36552;DHT22;22559;54.176;12.102;2024-02-15T00:38:34;10.70;99.90
36552;DHT22;22559;54.176;12.102;2024-02-15T00:41:00;10.60;99.90
36552;DHT22;22559;54.176;12.102;2024-02-15T00:43:28;10.60;99.90
36552;DHT22;22559;54.176;12.102;2024-02-15T00:45:54;10.60;99.90
36552;DHT22;22559;54.176;12.102;2024-02-15T00:48:20;10.60;99.90
36552;DHT22;22559;54.176;12.102;2024-02-15T00:50:45;10.70;99.90
36552;DHT22;22559;54.176;12.102;2024-02-15T00:53:11;10.60;99.90
36552;DHT22;22559;54.176;12.102;2024-02-15T00:55:37;10.60;99.90
36552;DHT22;22559;54.176;12.102;2024-02-15T00:58:02;10.60;99.90
36552;DHT22;22559;54.176;12.102;2024-02-15T01:00:28;10.60;99.90
36552;DHT22;22559;54.176;12.102;2024-02-15T01:02:57;10.60;99.90
36552;DHT22;22559;54.176;12.102;2024-02-15T01:05:23;10.50;99.90
36552;DHT22;22559;54.176;12.102;2024-02-15T01:07:49;10.50;99.90
36552;DHT22;22559;54.176;12.102;2024-02-15T01:10:15;10.60;99.90
36552;DHT22;22559;54.176;12.102;2024-02-15T01:12:41;10.50;99.90
36552;DHT22;22559;54.176;12.102;2024-02-15T01:15:07;10.50;99.90
36552;DHT22;22559;54.176;12.102;2024-02-15T01:17:32;10.50;99.90
36552;DHT22;22559;54.176;12.102;2024-02-15T01:19:58;10.50;99.90
36552;DHT22;22559;54.176;12.102;2024-02-15T01:22:24;10.50;99.90
36552;DHT22;22559;54.176;12.102;2024-02-15T01:24:52;10.50;99.90
36552;DHT22;22559;54.176;12.102;2024-02-15T01:27:18;10.60;99.90
36552;DHT22;22559;54.176;12.102;2024-02-15T01:29:44;10.50;99.90
36552;DHT22;22559;54.176;12.102;2024-02-15T01:32:10;10.50;99.90
36552;DHT22;22559;54.176;12.102;2024-02-15T01:34:35;10.50;99.90
36552;DHT22;22559;54.176;12.102;2024-02-15T01:37:01;10.50;99.90
36552;DHT22;22559;54.176;12.102;2024-02-15T01:39:27;10.50;99.90
36552;DHT22;22559;54.176;12.102;2024-02-15T01:41:52;10.50;99.90
36552;DHT22;22559;54.176;12.102;2024-02-15T01:44:22;10.50;99.90
36552;DHT22;22559;54.176;12.102;2024-02-15T01:46:50;10.50;99.90
36552;DHT22;22559;54.176;12.102;2024-02-15T01:49:19;10.50;99.90
36552;DHT22;22559;54.176;12.102;2024-02-15T01:51:46;10.40;99.90
36552;DHT22;22559;54.176;12.102;2024-02-15T01:54:12;10.40;99.90
36552;DHT22;22559;54.176;12.102;2024-02-15T01:56:38;10.40;99.90
36552;DHT22;22559;54.176;12.102;2024-02-15T01:59:05;10.40;99.90
36552;DHT22;22559;54.176;12.102;2024-02-15T02:01:31;10.40;99.90
36552;DHT22;22559;54.176;12.102;2024-02-15T02:03:58;10.30;99.90
36552;DHT22;22559;54.176;12.102;2024-02-15T02:06:25;10.30;99.90
36552;DHT22;22559;54.176;12.102;2024-02-15T02:08:52;10.30;99.90
36552;DHT22;22559;54.176;12.102;2024-02-15T02:11:17;10.30;99.90
36552;DHT22;22559;54.176;12.102;2024-02-15T02:13:43;10.30;99.90
36552;DHT22;22559;54.176;12.102;2024-02-15T02:16:30;10.30;99.90
36552;DHT22;22559;54.176;12.102;2024-02-15T02:19:01;10.20;99.90
36552;DHT22;22559;54.176;12.102;2024-02-15T02:21:28;10.20;99.90
36552;DHT22;22559;54.176;12.102;2024-02-15T02:23:58;10.20;99.90
36552;DHT22;22559;54.176;12.102;2024-02-15T02:26:25;10.20;99.90
36552;DHT22;22559;54.176;12.102;2024-02-15T02:28:51;10.20;99.90
36552;DHT22;22559;54.176;12.102;2024-02-15T02:31:20;10.20;99.90
36552;DHT22;22559;54.176;12.102;2024-02-15T02:33:52;10.10;99.90
36552;DHT22;22559;54.176;12.102;2024-02-15T02:36:18;10.20;99.90
36552;DHT22;22559;54.176;12.102;2024-02-15T02:38:45;10.10;99.90
36552;DHT22;22559;54.176;12.102;2024-02-15T02:41:13;10.10;99.90
36552;DHT22;22559;54.176;12.102;2024-02-15T02:43:40;10.00;99.90
36552;DHT22;22559;54.176;12.102;2024-02-15T02:46:06;10.00;99.90
36552;DHT22;22559;54.176;12.102;2024-02-15T02:48:32;10.10;99.90
36552;DHT22;22559;54.176;12.102;2024-02-15T02:50:58;10.10;99.90
36552;DHT22;22559;54.176;12.102;2024-02-15T02:53:24;10.10;99.90
36552;DHT22;22559;54.176;12.102;2024-02-15T02:55:51;10.10;99.90
36552;DHT22;22559;54.176;12.102;2024-02-15T02:58:17;10.20;99.90
36552;DHT22;22559;54.176;12.102;2024-02-15T03:00:43;10.20;99.90
36552;DHT22;22559;54.176;12.102;2024-02-15T03:03:08;10.20;99.90
36552;DHT22;22559;54.176;12.102;2024-02-15T03:05:35;10.20;99.90
36552;DHT22;22559;54.176;12.102;2024-02-15T03:08:00;10.20;99.90
36552;DHT22;22559;54.176;12.102;2024-02-15T03:10:26;10.30;99.90
36552;DHT22;22559;54.176;12.102;2024-02-15T03:12:52;10.30;99.90
36552;DHT22;22559;54.176;12.102;2024-02-15T03:15:18;10.40;99.90
36552;DHT22;22559;54.176;12.102;2024-02-15T03:17:46;10.40;99.90
36552;DHT22;22559;54.176;12.102;2024-02-15T03:20:12;10.40;99.90
36552;DHT22;22559;54.176;12.102;2024-02-15T03:22:55;10.40;99.90
36552;DHT22;22559;54.176;12.102;2024-02-15T03:25:21;10.40;99.90
36552;DHT22;22559;54.176;12.102;2024-02-15T03:27:53;10.40;99.90
36552;DHT22;22559;54.176;12.102;2024-02-15T03:30:20;10.40;99.90
36552;DHT22;22559;54.176;12.102;2024-02-15T03:32:46;10.40;99.90
36552;DHT22;22559;54.176;12.102;2024-02-15T03:35:14;10.40;99.90
36552;DHT22;22559;54.176;12.102;2024-02-15T03:37:40;10.40;99.90
36552;DHT22;22559;54.176;12.102;2024-02-15T03:40:07;10.40;99.90
36552;DHT22;22559;54.176;12.102;2024-02-15T03:42:34;10.50;99.90
36552;DHT22;22559;54.176;12.102;2024-02-15T03:45:05;10.40;99.90
36552;DHT22;22559;54.176;12.102;2024-02-15T03:47:35;10.40;99.90
36552;DHT22;22559;54.176;12.102;2024-02-15T03:50:04;10.50;99.90
36552;DHT22;22559;54.176;12.102;2024-02-15T03:52:31;10.40;99.90
36552;DHT22;22559;54.176;12.102;2024-02-15T03:54:57;10.50;99.90
36552;DHT22;22559;54.176;12.102;2024-02-15T03:57:26;10.40;99.90
36552;DHT22;22559;54.176;12.102;2024-02-15T03:59:52;10.40;99.90
36552;DHT22;22559;54.176;12.102;2024-02-15T04:02:23;10.40;99.90
36552;DHT22;22559;54.176;12.102;2024-02-15T04:04:49;10.40;99.90
36552;DHT22;22559;54.176;12.102;2024-02-15T04:07:18;10.40;99.90
36552;DHT22;22559;54.176;12.102;2024-02-15T04:09:47;10.40;99.90
36552;DHT22;22559;54.176;12.102;2024-02-15T04:12:13;10.40;99.90
36552;DHT22;22559;54.176;12.102;2024-02-15T04:14:45;10.40;99.90
36552;DHT22;22559;54.176;12.102;2024-02-15T04:17:11;10.40;99.90
36552;DHT22;22559;54.176;12.102;2024-02-15T04:19:41;10.40;99.90
36552;DHT22;22559;54.176;12.102;2024-02-15T04:22:07;10.40;99.90
36552;DHT22;22559;54.176;12.102;2024-02-15T04:24:37;10.40;99.90
36552;DHT22;22559;54.176;12.102;2024-02-15T04:27:06;10.40;99.90
36552;DHT22;22559;54.176;12.102;2024-02-15T04:29:37;10.40;99.90
36552;DHT22;22559;54.176;12.102;2024-02-15T04:32:05;10.40;99.90
36552;DHT22;22559;54.176;12.102;2024-02-15T04:34:35;10.40;99.90
36552;DHT22;22559;54.176;12.102;2024-02-15T04:37:01;10.40;99.90
36552;DHT22;22559;54.176;12.102;2024-02-15T04:39:35;10.50;99.90
36552;DHT22;22559;54.176;12.102;2024-02-15T04:42:01;10.50;99.90
36552;DHT22;22559;54.176;12.102;2024-02-15T04:44:27;10.50;99.90
36552;DHT22;22559;54.176;12.102;2024-02-15T04:46:54;10.50;99.90
36552;DHT22;22559;54.176;12.102;2024-02-15T04:49:20;10.60;99.90
36552;DHT22;22559;54.176;12.102;2024-02-15T04:51:46;10.60;99.90
36552;DHT22;22559;54.176;12.102;2024-02-15T04:54:13;10.60;99.90
36552;DHT22;22559;54.176;12.102;2024-02-15T04:56:41;10.60;99.90
36552;DHT22;22559;54.176;12.102;2024-02-15T04:59:08;10.60;99.90
36552;DHT22;22559;54.176;12.102;2024-02-15T05:01:35;10.60;99.90
36552;DHT22;22559;54.176;12.102;2024-02-15T05:04:01;10.60;99.90
36552;DHT22;22559;54.176;12.102;2024-02-15T05:06:31;10.60;99.90
36552;DHT22;22559;54.176;12.102;2024-02-15T05:08:57;10.60;99.90
36552;DHT22;22559;54.176;12.102;2024-02-15T05:11:25;10.60;99.90
36552;DHT22;22559;54.176;12.102;2024-02-15T05:13:51;10.60;99.90
36552;DHT22;22559;54.176;12.102;2024-02-15T05:16:18;10.60;99.90
36552;DHT22;22559;54.176;12.102;2024-02-15T05:18:44;10.60;99.90
36552;DHT22;22559;54.176;12.102;2024-02-15T05:21:11;10.60;99.90
36552;DHT22;22559;54.176;12.102;2024-02-15T05:23:40;10.60;99.90
36552;DHT22;22559;54.176;12.102;2024-02-15T05:26:08;10.60;99.90
36552;DHT22;22559;54.176;12.102;2024-02-15T05:28:33;10.60;99.90
36552;DHT22;22559;54.176;12.102;2024-02-15T05:31:22;10.60;99.90
36552;DHT22;22559;54.176;12.102;2024-02-15T05:33:51;10.60;99.90
36552;DHT22;22559;54.176;12.102;2024-02-15T05:36:19;10.60;99.90
36552;DHT22;22559;54.176;12.102;2024-02-15T05:38:49;10.60;99.90
36552;DHT22;22559;54.176;12.102;2024-02-15T05:41:15;10.60;99.90
36552;DHT22;22559;54.176;12.102;2024-02-15T05:43:42;10.60;99.90
36552;DHT22;22559;54.176;12.102;2024-02-15T05:46:08;10.50;99.90
36552;DHT22;22559;54.176;12.102;2024-02-15T05:48:35;10.50;99.90
36552;DHT22;22559;54.176;12.102;2024-02-15T05:51:05;10.50;99.90
36552;DHT22;22559;54.176;12.102;2024-02-15T05:53:31;10.60;99.90
36552;DHT22;22559;54.176;12.102;2024-02-15T05:56:07;10.60;99.90
36552;DHT22;22559;54.176;12.102;2024-02-15T05:58:34;10.60;99.90
36552;DHT22;22559;54.176;12.102;2024-02-15T06:01:00;10.60;99.90
36552;DHT22;22559;54.176;12.102;2024-02-15T06:03:33;10.60;99.90
36552;DHT22;22559;54.176;12.102;2024-02-15T06:06:03;10.60;99.90
36552;DHT22;22559;54.176;12.102;2024-02-15T06:08:33;10.60;99.90
36552;DHT22;22559;54.176;12.102;2024-02-15T06:10:58;10.60;99.90
36552;DHT22;22559;54.176;12.102;2024-02-15T06:13:25;10.60;99.90
36552;DHT22;22559;54.176;12.102;2024-02-15T06:15:51;10.70;99.90
36552;DHT22;22559;54.176;12.102;2024-02-15T06:18:21;10.60;99.90
36552;DHT22;22559;54.176;12.102;2024-02-15T06:20:47;10.60;99.90
36552;DHT22;22559;54.176;12.102;2024-02-15T06:23:16;10.70;99.90
36552;DHT22;22559;54.176;12.102;2024-02-15T06:25:42;10.70;99.90
36552;DHT22;22559;54.176;12.102;2024-02-15T06:28:07;10.70;99.90
36552;DHT22;22559;54.176;12.102;2024-02-15T06:30:59;10.70;99.90
36552;DHT22;22559;54.176;12.102;2024-02-15T06:33:43;10.70;99.90
36552;DHT22;22559;54.176;12.102;2024-02-15T06:36:27;10.70;99.90
36552;DHT22;22559;54.176;12.102;2024-02-15T06:39:11;10.80;99.90
36552;DHT22;22559;54.176;12.102;2024-02-15T06:41:55;10.80;99.90
36552;DHT22;22559;54.176;12.102;2024-02-15T06:44:22;10.80;99.90
36552;DHT22;22559;54.176;12.102;2024-02-15T06:46:49;10.80;99.90
36552;DHT22;22559;54.176;12.102;2024-02-15T06:49:15;10.80;99.90
36552;DHT22;22559;54.176;12.102;2024-02-15T06:51:42;10.80;99.90
36552;DHT22;22559;54.176;12.102;2024-02-15T06:54:07;10.80;99.90
36552;DHT22;22559;54.176;12.102;2024-02-15T06:56:36;10.80;99.90
36552;DHT22;22559;54.176;12.102;2024-02-15T06:59:03;10.80;99.90
36552;DHT22;22559;54.176;12.102;2024-02-15T07:01:28;10.90;99.90
36552;DHT22;22559;54.176;12.102;2024-02-15T07:03:54;10.90;99.90
36552;DHT22;22559;54.176;12.102;2024-02-15T07:06:21;10.90;99.90
36552;DHT22;22559;54.176;12.102;2024-02-15T07:08:47;10.90;99.90
36552;DHT22;22559;54.176;12.102;2024-02-15T07:11:16;10.90;99.90
36552;DHT22;22559;54.176;12.102;2024-02-15T07:13:41;10.90;99.90
36552;DHT22;22559;54.176;12.102;2024-02-15T07:16:10;10.80;99.90
36552;DHT22;22559;54.176;12.102;2024-02-15T07:18:37;10.80;99.90
36552;DHT22;22559;54.176;12.102;2024-02-15T07:21:02;10.80;99.90
36552;DHT22;22559;54.176;12.102;2024-02-15T07:23:34;10.80;99.90
36552;DHT22;22559;54.176;12.102;2024-02-15T07:25:59;10.80;99.90
36552;DHT22;22559;54.176;12.102;2024-02-15T07:28:25;10.80;99.90
36552;DHT22;22559;54.176;12.102;2024-02-15T07:30:54;10.90;99.90
36552;DHT22;22559;54.176;12.102;2024-02-15T07:33:21;10.90;99.90
36552;DHT22;22559;54.176;12.102;2024-02-15T07:35:48;10.90;99.90
36552;DHT22;22559;54.176;12.102;2024-02-15T07:38:17;10.90;99.90
36552;DHT22;22559;54.176;12.102;2024-02-15T07:40:42;10.90;99.90
36552;DHT22;22559;54.176;12.102;2024-02-15T07:43:09;10.90;99.90
36552;DHT22;22559;54.176;12.102;2024-02-15T07:45:35;10.90;99.90
36552;DHT22;22559;54.176;12.102;2024-02-15T07:48:04;10.90;99.90
36552;DHT22;22559;54.176;12.102;2024-02-15T07:50:32;10.90;99.90
36552;DHT22;22559;54.176;12.102;2024-02-15T07:52:58;10.90;99.90
36552;DHT22;22559;54.176;12.102;2024-02-15T07:55:24;11.00;99.90
36552;DHT22;22559;54.176;12.102;2024-02-15T07:57:52;11.00;99.90
36552;DHT22;22559;54.176;12.102;2024-02-15T08:00:19;11.00;99.90
36552;DHT22;22559;54.176;12.102;2024-02-15T08:02:45;11.00;99.90
36552;DHT22;22559;54.176;12.102;2024-02-15T08:05:11;11.10;99.90
36552;DHT22;22559;54.176;12.102;2024-02-15T08:07:44;11.10;99.90
36552;DHT22;22559;54.176;12.102;2024-02-15T08:10:11;11.10;99.90
36552;DHT22;22559;54.176;12.102;2024-02-15T08:12:41;11.20;99.90
36552;DHT22;22559;54.176;12.102;2024-02-15T08:15:07;11.20;99.90
36552;DHT22;22559;54.176;12.102;2024-02-15T08:17:43;11.20;99.90
36552;DHT22;22559;54.176;12.102;2024-02-15T08:20:12;11.20;99.90
36552;DHT22;22559;54.176;12.102;2024-02-15T08:22:39;11.20;99.90
36552;DHT22;22559;54.176;12.102;2024-02-15T08:25:12;11.30;99.90
36552;DHT22;22559;54.176;12.102;2024-02-15T08:27:40;11.30;99.90
36552;DHT22;22559;54.176;12.102;2024-02-15T08:30:13;11.30;99.90
36552;DHT22;22559;54.176;12.102;2024-02-15T08:32:43;11.40;99.90
36552;DHT22;22559;54.176;12.102;2024-02-15T08:35:09;11.30;99.90
36552;DHT22;22559;54.176;12.102;2024-02-15T08:37:36;11.40;99.90
36552;DHT22;22559;54.176;12.102;2024-02-15T08:40:07;11.40;99.90
36552;DHT22;22559;54.176;12.102;2024-02-15T08:42:42;11.40;99.90
36552;DHT22;22559;54.176;12.102;2024-02-15T08:45:09;11.40;99.90
36552;DHT22;22559;54.176;12.102;2024-02-15T08:47:42;11.40;99.90
36552;DHT22;22559;54.176;12.102;2024-02-15T08:50:10;11.50;99.90
36552;DHT22;22559;54.176;12.102;2024-02-15T08:52:39;11.60;99.90
36552;DHT22;22559;54.176;12.102;2024-02-15T08:55:09;11.60;99.90
36552;DHT22;22559;54.176;12.102;2024-02-15T08:57:36;11.60;99.90
36552;DHT22;22559;54.176;12.102;2024-02-15T09:00:05;11.70;99.90
36552;DHT22;22559;54.176;12.102;2024-02-15T09:02:38;11.70;99.90
36552;DHT22;22559;54.176;12.102;2024-02-15T09:05:06;11.80;99.90
36552;DHT22;22559;54.176;12.102;2024-02-15T09:07:31;11.80;99.90
36552;DHT22;22559;54.176;12.102;2024-02-15T09:09:57;11.80;99.90
36552;DHT22;22559;54.176;12.102;2024-02-15T09:12:23;11.90;99.90
36552;DHT22;22559;54.176;12.102;2024-02-15T09:14:48;11.90;99.90
36552;DHT22;22559;54.176;12.102;2024-02-15T09:17:14;11.90;99.90
36552;DHT22;22559;54.176;12.102;2024-02-15T09:19:40;11.90;99.90
36552;DHT22;22559;54.176;12.102;2024-02-15T09:22:07;12.00;99.90
36552;DHT22;22559;54.176;12.102;2024-02-15T09:24:33;12.00;99.90
36552;DHT22;22559;54.176;12.102;2024-02-15T09:27:02;12.10;99.90
36552;DHT22;22559;54.176;12.102;2024-02-15T09:29:28;12.10;99.90
36552;DHT22;22559;54.176;12.102;2024-02-15T09:32:04;12.20;99.90
36552;DHT22;22559;54.176;12.102;2024-02-15T09:34:30;12.20;99.90
36552;DHT22;22559;54.176;12.102;2024-02-15T09:36:55;12.20;99.90
36552;DHT22;22559;54.176;12.102;2024-02-15T09:39:22;12.20;99.90
36552;DHT22;22559;54.176;12.102;2024-02-15T09:41:48;12.30;99.90
36552;DHT22;22559;54.176;12.102;2024-02-15T09:44:21;12.30;99.90
36552;DHT22;22559;54.176;12.102;2024-02-15T09:46:50;12.30;99.90
36552;DHT22;22559;54.176;12.102;2024-02-15T09:49:18;12.30;99.90
36552;DHT22;22559;54.176;12.102;2024-02-15T09:51:46;12.30;99.90
36552;DHT22;22559;54.176;12.102;2024-02-15T09:54:14;12.30;99.90
36552;DHT22;22559;54.176;12.102;2024-02-15T09:56:49;12.30;99.90
36552;DHT22;22559;54.176;12.102;2024-02-15T09:59:16;12.30;99.90
36552;DHT22;22559;54.176;12.102;2024-02-15T10:01:43;12.30;99.90
36552;DHT22;22559;54.176;12.102;2024-02-15T10:04:11;12.30;99.90
36552;DHT22;22559;54.176;12.102;2024-02-15T10:06:41;12.30;99.90
36552;DHT22;22559;54.176;12.102;2024-02-15T10:09:27;12.20;99.90
36552;DHT22;22559;54.176;12.102;2024-02-15T10:11:56;12.20;99.90
36552;DHT22;22559;54.176;12.102;2024-02-15T10:14:23;12.20;99.90
36552;DHT22;22559;54.176;12.102;2024-02-15T10:16:49;12.20;99.90
36552;DHT22;22559;54.176;12.102;2024-02-15T10:19:15;12.30;99.90
36552;DHT22;22559;54.176;12.102;2024-02-15T10:21:42;12.30;99.90
36552;DHT22;22559;54.176;12.102;2024-02-15T10:24:08;12.30;99.90
36552;DHT22;22559;54.176;12.102;2024-02-15T10:26:35;12.20;99.90
36552;DHT22;22559;54.176;12.102;2024-02-15T10:29:05;12.20;99.90
36552;DHT22;22559;54.176;12.102;2024-02-15T10:31:35;12.20;99.90
36552;DHT22;22559;54.176;12.102;2024-02-15T10:34:07;12.20;99.90
36552;DHT22;22559;54.176;12.102;2024-02-15T10:36:34;12.10;99.90
36552;DHT22;22559;54.176;12.102;2024-02-15T10:39:18;12.20;99.90
36552;DHT22;22559;54.176;12.102;2024-02-15T10:41:48;12.30;99.90
36552;DHT22;22559;54.176;12.102;2024-02-15T10:44:19;12.30;99.90
36552;DHT22;22559;54.176;12.102;2024-02-15T10:46:49;12.40;99.90
36552;DHT22;22559;54.176;12.102;2024-02-15T10:49:22;12.50;99.90
36552;DHT22;22559;54.176;12.102;2024-02-15T10:51:55;12.50;99.90
36552;DHT22;22559;54.176;12.102;2024-02-15T10:54:46;12.60;99.90
36552;DHT22;22559;54.176;12.102;2024-02-15T10:57:14;12.50;99.90
36552;DHT22;22559;54.176;12.102;2024-02-15T10:59:55;12.60;99.90
36552;DHT22;22559;54.176;12.102;2024-02-15T11:02:31;12.60;99.90
36552;DHT22;22559;54.176;12.102;2024-02-15T11:05:09;12.70;99.90
36552;DHT22;22559;54.176;12.102;2024-02-15T11:07:36;12.80;99.90
36552;DHT22;22559;54.176;12.102;2024-02-15T11:10:08;12.80;99.90
36552;DHT22;22559;54.176;12.102;2024-02-15T11:12:36;12.80;99.90
36552;DHT22;22559;54.176;12.102;2024-02-15T11:15:03;12.80;99.90
36552;DHT22;22559;54.176;12.102;2024-02-15T11:21:05;12.90;99.90
36552;DHT22;22559;54.176;12.102;2024-02-15T11:23:05;12.80;99.90
36552;DHT22;22559;54.176;12.102;2024-02-15T11:25:35;12.80;99.90
36552;DHT22;22559;54.176;12.102;2024-02-15T11:28:38;12.80;99.90
36552;DHT22;22559;54.176;12.102;2024-02-15T11:31:07;12.80;99.90
36552;DHT22;22559;54.176;12.102;2024-02-15T11:33:35;12.80;99.90
36552;DHT22;22559;54.176;12.102;2024-02-15T11:36:05;12.80;99.90
36552;DHT22;22559;54.176;12.102;2024-02-15T11:38:31;12.80;99.90
36552;DHT22;22559;54.176;12.102;2024-02-15T11:46:14;12.80;99.90
36552;DHT22;22559;54.176;12.102;2024-02-15T11:48:40;12.80;99.90
36552;DHT22;22559;54.176;12.102;2024-02-15T11:51:09;12.70;99.90
36552;DHT22;22559;54.176;12.102;2024-02-15T11:53:37;12.70;99.90
36552;DHT22;22559;54.176;12.102;2024-02-15T11:56:03;12.70;99.90
36552;DHT22;22559;54.176;12.102;2024-02-15T11:58:31;12.80;99.90
36552;DHT22;22559;54.176;12.102;2024-02-15T12:01:17;12.70;99.90
36552;DHT22;22559;54.176;12.102;2024-02-15T12:04:02;12.70;99.90
36552;DHT22;22559;54.176;12.102;2024-02-15T12:06:46;12.80;99.90
36552;DHT22;22559;54.176;12.102;2024-02-15T12:09:30;12.80;99.90
36552;DHT22;22559;54.176;12.102;2024-02-15T12:12:14;12.80;99.90
36552;DHT22;22559;54.176;12.102;2024-02-15T12:14:59;12.90;99.90
36552;DHT22;22559;54.176;12.102;2024-02-15T12:17:43;12.90;99.90
36552;DHT22;22559;54.176;12.102;2024-02-15T12:20:27;13.00;99.90
36552;DHT22;22559;54.176;12.102;2024-02-15T12:22:54;13.00;99.90
36552;DHT22;22559;54.176;12.102;2024-02-15T12:25:20;13.00;99.90
36552;DHT22;22559;54.176;12.102;2024-02-15T12:27:52;13.10;99.90
36552;DHT22;22559;54.176;12.102;2024-02-15T12:30:19;13.10;99.90
36552;DHT22;22559;54.176;12.102;2024-02-15T12:32:51;13.10;99.90
36552;DHT22;22559;54.176;12.102;2024-02-15T12:35:19;13.00;99.90
36552;DHT22;22559;54.176;12.102;2024-02-15T12:37:46;13.00;99.90
36552;DHT22;22559;54.176;12.102;2024-02-15T12:40:21;13.10;99.90
36552;DHT22;22559;54.176;12.102;2024-02-15T12:42:48;13.10;99.90
36552;DHT22;22559;54.176;12.102;2024-02-15T12:47:50;13.10;99.90
36552;DHT22;22559;54.176;12.102;2024-02-15T12:50:17;13.10;99.90
36552;DHT22;22559;54.176;12.102;2024-02-15T12:52:46;13.10;99.90
36552;DHT22;22559;54.176;12.102;2024-02-15T12:55:19;13.00;99.90
36552;DHT22;22559;54.176;12.102;2024-02-15T12:57:48;13.00;99.90
36552;DHT22;22559;54.176;12.102;2024-02-15T13:00:26;13.00;99.90
36552;DHT22;22559;54.176;12.102;2024-02-15T13:02:58;13.00;99.90
36552;DHT22;22559;54.176;12.102;2024-02-15T13:05:26;13.00;99.90
36552;DHT22;22559;54.176;12.102;2024-02-15T13:07:54;13.00;99.90
36552;DHT22;22559;54.176;12.102;2024-02-15T13:10:36;13.00;99.90
36552;DHT22;22559;54.176;12.102;2024-02-15T13:13:01;13.00;99.90
36552;DHT22;22559;54.176;12.102;2024-02-15T13:15:27;13.00;99.90
36552;DHT22;22559;54.176;12.102;2024-02-15T13:17:58;13.00;99.90
36552;DHT22;22559;54.176;12.102;2024-02-15T13:20:24;13.00;99.90
36552;DHT22;22559;54.176;12.102;2024-02-15T13:23:02;13.00;99.90
36552;DHT22;22559;54.176;12.102;2024-02-15T13:25:34;13.00;99.90
36552;DHT22;22559;54.176;12.102;2024-02-15T13:27:59;13.00;99.90
36552;DHT22;22559;54.176;12.102;2024-02-15T13:30:25;13.00;99.90
36552;DHT22;22559;54.176;12.102;2024-02-15T13:32:53;13.00;99.90
36552;DHT22;22559;54.176;12.102;2024-02-15T13:35:22;13.00;99.90
36552;DHT22;22559;54.176;12.102;2024-02-15T13:37:53;12.90;99.90
36552;DHT22;22559;54.176;12.102;2024-02-15T13:40:24;13.00;99.90
36552;DHT22;22559;54.176;12.102;2024-02-15T13:42:53;13.00;99.90
36552;DHT22;22559;54.176;12.102;2024-02-15T13:45:23;13.00;99.90
36552;DHT22;22559;54.176;12.102;2024-02-15T13:47:52;13.10;99.90
36552;DHT22;22559;54.176;12.102;2024-02-15T13:50:21;13.00;99.90
36552;DHT22;22559;54.176;12.102;2024-02-15T13:52:47;13.00;99.90
36552;DHT22;22559;54.176;12.102;2024-02-15T13:55:21;13.00;99.90
36552;DHT22;22559;54.176;12.102;2024-02-15T13:57:48;13.00;99.90
36552;DHT22;22559;54.176;12.102;2024-02-15T14:00:15;13.00;99.90
36552;DHT22;22559;54.176;12.102;2024-02-15T14:02:58;13.00;99.90
36552;DHT22;22559;54.176;12.102;2024-02-15T14:05:28;13.00;99.90
36552;DHT22;22559;54.176;12.102;2024-02-15T14:08:04;13.00;99.90
36552;DHT22;22559;54.176;12.102;2024-02-15T14:10:39;13.00;99.90
36552;DHT22;22559;54.176;12.102;2024-02-15T14:13:05;13.00;99.90
36552;DHT22;22559;54.176;12.102;2024-02-15T14:15:31;12.90;99.90
36552;DHT22;22559;54.176;12.102;2024-02-15T14:18:08;12.90;99.90
36552;DHT22;22559;54.176;12.102;2024-02-15T14:20:36;12.90;99.90
36552;DHT22;22559;54.176;12.102;2024-02-15T14:23:03;12.90;99.90
36552;DHT22;22559;54.176;12.102;2024-02-15T14:25:31;12.90;99.90
36552;DHT22;22559;54.176;12.102;2024-02-15T14:27:57;12.80;99.90
36552;DHT22;22559;54.176;12.102;2024-02-15T14:30:24;12.80;99.90
36552;DHT22;22559;54.176;12.102;2024-02-15T14:33:08;12.80;99.90
36552;DHT22;22559;54.176;12.102;2024-02-15T14:35:37;12.80;99.90
36552;DHT22;22559;54.176;12.102;2024-02-15T14:38:06;12.70;99.90
36552;DHT22;22559;54.176;12.102;2024-02-15T14:40:44;12.70;99.90
36552;DHT22;22559;54.176;12.102;2024-02-15T14:43:11;12.70;99.90
36552;DHT22;22559;54.176;12.102;2024-02-15T14:45:39;12.70;99.90
36552;DHT22;22559;54.176;12.102;2024-02-15T14:48:08;12.70;99.90
36552;DHT22;22559;54.176;12.102;2024-02-15T14:50:36;12.70;99.90
36552;DHT22;22559;54.176;12.102;2024-02-15T14:53:02;12.70;99.90
36552;DHT22;22559;54.176;12.102;2024-02-15T14:55:27;12.60;99.90
36552;DHT22;22559;54.176;12.102;2024-02-15T14:57:54;12.50;99.90
36552;DHT22;22559;54.176;12.102;2024-02-15T15:00:20;12.50;99.90
36552;DHT22;22559;54.176;12.102;2024-02-15T15:02:48;12.50;99.90
36552;DHT22;22559;54.176;12.102;2024-02-15T15:05:14;12.50;99.90
36552;DHT22;22559;54.176;12.102;2024-02-15T15:07:59;12.40;99.90
36552;DHT22;22559;54.176;12.102;2024-02-15T15:10:47;12.50;99.90
36552;DHT22;22559;54.176;12.102;2024-02-15T15:13:32;12.50;99.90
36552;DHT22;22559;54.176;12.102;2024-02-15T15:16:02;12.50;99.90
36552;DHT22;22559;54.176;12.102;2024-02-15T15:18:29;12.50;99.90
36552;DHT22;22559;54.176;12.102;2024-02-15T15:20:57;12.50;99.90
36552;DHT22;22559;54.176;12.102;2024-02-15T15:23:22;12.40;99.90
36552;DHT22;22559;54.176;12.102;2024-02-15T15:25:48;12.40;99.90
36552;DHT22;22559;54.176;12.102;2024-02-15T15:28:14;12.40;99.90
36552;DHT22;22559;54.176;12.102;2024-02-15T15:30:39;12.30;99.90
36552;DHT22;22559;54.176;12.102;2024-02-15T15:33:05;12.40;99.90
36552;DHT22;22559;54.176;12.102;2024-02-15T15:35:33;12.30;99.90
36552;DHT22;22559;54.176;12.102;2024-02-15T15:38:03;12.30;99.90